sensor_id;sensor_type;location;lat;lon;timestamp;P1;durP1;ratioP1;P2;durP2;ratioP2
82558;SDS011;72227;42.004;21.364;2024-02-21T00:00:50;883.20;;;835.63;;
82558;SDS011;72227;42.004;21.364;2024-02-21T00:03:16;882.70;;;834.70;;
82558;SDS011;72227;42.004;21.364;2024-02-21T00:05:42;880.97;;;833.53;;
82558;SDS011;72227;42.004;21.364;2024-02-21T00:08:08;889.33;;;841.25;;
82558;SDS011;72227;42.004;21.364;2024-02-21T00:10:34;880.90;;;832.65;;
82558;SDS011;72227;42.004;21.364;2024-02-21T00:13:01;879.83;;;832.00;;
82558;SDS011;72227;42.004;21.364;2024-02-21T00:15:27;881.45;;;832.78;;
82558;SDS011;72227;42.004;21.364;2024-02-21T00:17:53;886.25;;;837.22;;
82558;SDS011;72227;42.004;21.364;2024-02-21T00:20:19;879.38;;;831.15;;
82558;SDS011;72227;42.004;21.364;2024-02-21T00:22:45;881.95;;;834.08;;
82558;SDS011;72227;42.004;21.364;2024-02-21T00:25:11;873.08;;;825.05;;
82558;SDS011;72227;42.004;21.364;2024-02-21T00:27:38;872.00;;;823.75;;
82558;SDS011;72227;42.004;21.364;2024-02-21T00:30:04;884.42;;;835.50;;
82558;SDS011;72227;42.004;21.364;2024-02-21T00:32:30;873.00;;;826.00;;
82558;SDS011;72227;42.004;21.364;2024-02-21T00:34:59;878.65;;;830.20;;
82558;SDS011;72227;42.004;21.364;2024-02-21T00:37:25;880.13;;;831.97;;
82558;SDS011;72227;42.004;21.364;2024-02-21T00:39:51;874.85;;;827.42;;
82558;SDS011;72227;42.004;21.364;2024-02-21T00:42:17;885.63;;;837.05;;
82558;SDS011;72227;42.004;21.364;2024-02-21T00:44:43;873.47;;;825.88;;
82558;SDS011;72227;42.004;21.364;2024-02-21T00:47:10;875.35;;;827.97;;
82558;SDS011;72227;42.004;21.364;2024-02-21T00:49:36;893.15;;;844.92;;
82558;SDS011;72227;42.004;21.364;2024-02-21T00:52:02;885.15;;;837.08;;
82558;SDS011;72227;42.004;21.364;2024-02-21T00:54:28;883.88;;;836.25;;
82558;SDS011;72227;42.004;21.364;2024-02-21T00:56:54;865.10;;;818.28;;
82558;SDS011;72227;42.004;21.364;2024-02-21T00:59:20;878.83;;;830.95;;
82558;SDS011;72227;42.004;21.364;2024-02-21T01:01:46;869.55;;;823.13;;
82558;SDS011;72227;42.004;21.364;2024-02-21T01:04:12;873.17;;;826.53;;
82558;SDS011;72227;42.004;21.364;2024-02-21T01:06:38;870.30;;;823.65;;
82558;SDS011;72227;42.004;21.364;2024-02-21T01:09:07;868.55;;;821.85;;
82558;SDS011;72227;42.004;21.364;2024-02-21T01:11:33;879.70;;;832.08;;
82558;SDS011;72227;42.004;21.364;2024-02-21T01:14:00;1154.43;;;869.58;;
82558;SDS011;72227;42.004;21.364;2024-02-21T01:16:26;1159.32;;;874.13;;
82558;SDS011;72227;42.004;21.364;2024-02-21T01:18:52;1158.75;;;873.60;;
82558;SDS011;72227;42.004;21.364;2024-02-21T01:21:18;1151.07;;;866.08;;
82558;SDS011;72227;42.004;21.364;2024-02-21T01:23:44;871.92;;;825.13;;
82558;SDS011;72227;42.004;21.364;2024-02-21T01:26:10;1999.90;;;999.90;;
82558;SDS011;72227;42.004;21.364;2024-02-21T01:28:38;1159.32;;;874.03;;
82558;SDS011;72227;42.004;21.364;2024-02-21T01:31:04;1151.78;;;867.05;;
82558;SDS011;72227;42.004;21.364;2024-02-21T01:33:31;1154.68;;;869.33;;
82558;SDS011;72227;42.004;21.364;2024-02-21T01:36:02;1162.30;;;876.95;;
82558;SDS011;72227;42.004;21.364;2024-02-21T01:38:29;1161.32;;;876.00;;
82558;SDS011;72227;42.004;21.364;2024-02-21T01:40:55;1160.28;;;875.13;;
82558;SDS011;72227;42.004;21.364;2024-02-21T01:43:21;1999.90;;;999.90;;
82558;SDS011;72227;42.004;21.364;2024-02-21T01:45:50;1999.90;;;999.90;;
82558;SDS011;72227;42.004;21.364;2024-02-21T01:48:18;1147.45;;;863.30;;
82558;SDS011;72227;42.004;21.364;2024-02-21T01:50:47;1434.82;;;911.58;;
82558;SDS011;72227;42.004;21.364;2024-02-21T01:53:25;868.28;;;822.33;;
82558;SDS011;72227;42.004;21.364;2024-02-21T01:55:53;856.20;;;810.97;;
82558;SDS011;72227;42.004;21.364;2024-02-21T01:58:20;851.80;;;806.97;;
82558;SDS011;72227;42.004;21.364;2024-02-21T02:00:46;1146.93;;;862.78;;
82558;SDS011;72227;42.004;21.364;2024-02-21T02:03:13;867.17;;;821.85;;
82558;SDS011;72227;42.004;21.364;2024-02-21T02:05:45;857.03;;;811.78;;
82558;SDS011;72227;42.004;21.364;2024-02-21T02:08:18;862.45;;;817.45;;
82558;SDS011;72227;42.004;21.364;2024-02-21T02:10:45;848.72;;;805.20;;
82558;SDS011;72227;42.004;21.364;2024-02-21T02:13:11;1142.93;;;859.28;;
82558;SDS011;72227;42.004;21.364;2024-02-21T02:15:41;847.83;;;804.05;;
82558;SDS011;72227;42.004;21.364;2024-02-21T02:18:07;1999.90;;;999.90;;
82558;SDS011;72227;42.004;21.364;2024-02-21T02:20:33;1140.15;;;856.97;;
82558;SDS011;72227;42.004;21.364;2024-02-21T02:23:00;841.63;;;798.95;;
82558;SDS011;72227;42.004;21.364;2024-02-21T02:25:29;845.80;;;802.35;;
82558;SDS011;72227;42.004;21.364;2024-02-21T02:27:55;1129.05;;;846.72;;
82558;SDS011;72227;42.004;21.364;2024-02-21T02:30:21;1999.90;;;999.90;;
82558;SDS011;72227;42.004;21.364;2024-02-21T02:32:47;839.88;;;796.90;;
82558;SDS011;72227;42.004;21.364;2024-02-21T02:35:13;1147.38;;;863.95;;
82558;SDS011;72227;42.004;21.364;2024-02-21T02:37:39;1136.80;;;853.80;;
82558;SDS011;72227;42.004;21.364;2024-02-21T02:40:06;1999.90;;;999.90;;
82558;SDS011;72227;42.004;21.364;2024-02-21T02:42:32;861.42;;;816.83;;
82558;SDS011;72227;42.004;21.364;2024-02-21T02:44:58;1134.18;;;851.47;;
82558;SDS011;72227;42.004;21.364;2024-02-21T02:47:24;1128.75;;;846.38;;
82558;SDS011;72227;42.004;21.364;2024-02-21T02:49:50;1143.30;;;860.17;;
82558;SDS011;72227;42.004;21.364;2024-02-21T02:52:17;854.45;;;810.80;;
82558;SDS011;72227;42.004;21.364;2024-02-21T02:54:43;1146.68;;;863.65;;
82558;SDS011;72227;42.004;21.364;2024-02-21T02:57:09;1138.45;;;855.60;;
82558;SDS011;72227;42.004;21.364;2024-02-21T02:59:35;1130.97;;;848.47;;
82558;SDS011;72227;42.004;21.364;2024-02-21T03:02:02;846.58;;;803.33;;
82558;SDS011;72227;42.004;21.364;2024-02-21T03:04:28;1137.57;;;855.03;;
82558;SDS011;72227;42.004;21.364;2024-02-21T03:06:54;1999.90;;;999.90;;
82558;SDS011;72227;42.004;21.364;2024-02-21T03:09:20;1999.90;;;999.90;;
82558;SDS011;72227;42.004;21.364;2024-02-21T03:11:46;1999.90;;;999.90;;
82558;SDS011;72227;42.004;21.364;2024-02-21T03:14:12;1999.90;;;999.90;;
82558;SDS011;72227;42.004;21.364;2024-02-21T03:16:38;1999.90;;;999.90;;
82558;SDS011;72227;42.004;21.364;2024-02-21T03:19:05;1999.90;;;999.90;;
82558;SDS011;72227;42.004;21.364;2024-02-21T03:21:31;1999.90;;;999.90;;
82558;SDS011;72227;42.004;21.364;2024-02-21T03:23:57;1999.90;;;999.90;;
82558;SDS011;72227;42.004;21.364;2024-02-21T03:26:23;1999.90;;;999.90;;
82558;SDS011;72227;42.004;21.364;2024-02-21T03:28:49;1999.90;;;999.90;;
82558;SDS011;72227;42.004;21.364;2024-02-21T03:31:15;1999.90;;;999.90;;
82558;SDS011;72227;42.004;21.364;2024-02-21T03:33:42;1999.90;;;999.90;;
82558;SDS011;72227;42.004;21.364;2024-02-21T03:36:14;1999.90;;;999.90;;
82558;SDS011;72227;42.004;21.364;2024-02-21T03:38:41;1999.90;;;999.90;;
82558;SDS011;72227;42.004;21.364;2024-02-21T03:41:07;1999.90;;;999.90;;
82558;SDS011;72227;42.004;21.364;2024-02-21T03:43:33;1999.90;;;999.90;;
82558;SDS011;72227;42.004;21.364;2024-02-21T03:45:59;1999.90;;;999.90;;
82558;SDS011;72227;42.004;21.364;2024-02-21T03:48:26;1999.90;;;999.90;;
82558;SDS011;72227;42.004;21.364;2024-02-21T03:50:52;1999.90;;;999.90;;
82558;SDS011;72227;42.004;21.364;2024-02-21T03:53:18;1999.90;;;999.90;;
82558;SDS011;72227;42.004;21.364;2024-02-21T03:55:44;1999.90;;;999.90;;
82558;SDS011;72227;42.004;21.364;2024-02-21T03:58:10;1999.90;;;999.90;;
82558;SDS011;72227;42.004;21.364;2024-02-21T04:00:36;1999.90;;;999.90;;
82558;SDS011;72227;42.004;21.364;2024-02-21T04:03:02;1999.90;;;999.90;;
82558;SDS011;72227;42.004;21.364;2024-02-21T04:05:28;1999.90;;;999.90;;
82558;SDS011;72227;42.004;21.364;2024-02-21T04:07:54;1999.90;;;999.90;;
82558;SDS011;72227;42.004;21.364;2024-02-21T04:10:21;1999.90;;;999.90;;
82558;SDS011;72227;42.004;21.364;2024-02-21T04:12:47;1999.90;;;999.90;;
82558;SDS011;72227;42.004;21.364;2024-02-21T04:15:15;1999.90;;;999.90;;
82558;SDS011;72227;42.004;21.364;2024-02-21T04:17:41;1999.90;;;999.90;;
82558;SDS011;72227;42.004;21.364;2024-02-21T04:20:13;1999.90;;;999.90;;
82558;SDS011;72227;42.004;21.364;2024-02-21T04:25:05;1999.90;;;999.90;;
82558;SDS011;72227;42.004;21.364;2024-02-21T04:27:31;1999.90;;;999.90;;
82558;SDS011;72227;42.004;21.364;2024-02-21T04:29:57;1999.90;;;999.90;;
82558;SDS011;72227;42.004;21.364;2024-02-21T04:32:23;1999.90;;;999.90;;
82558;SDS011;72227;42.004;21.364;2024-02-21T04:34:52;1999.90;;;999.90;;
82558;SDS011;72227;42.004;21.364;2024-02-21T04:37:18;1999.90;;;999.90;;
82558;SDS011;72227;42.004;21.364;2024-02-21T04:39:44;1999.90;;;999.90;;
82558;SDS011;72227;42.004;21.364;2024-02-21T04:42:10;1999.90;;;999.90;;
82558;SDS011;72227;42.004;21.364;2024-02-21T04:44:36;1999.90;;;999.90;;
82558;SDS011;72227;42.004;21.364;2024-02-21T04:47:03;1999.90;;;999.90;;
82558;SDS011;72227;42.004;21.364;2024-02-21T04:49:29;1999.90;;;999.90;;
82558;SDS011;72227;42.004;21.364;2024-02-21T04:51:55;1999.90;;;999.90;;
82558;SDS011;72227;42.004;21.364;2024-02-21T04:54:21;1999.90;;;999.90;;
82558;SDS011;72227;42.004;21.364;2024-02-21T04:56:48;1999.90;;;999.90;;
82558;SDS011;72227;42.004;21.364;2024-02-21T04:59:14;1999.90;;;999.90;;
82558;SDS011;72227;42.004;21.364;2024-02-21T05:01:40;1999.90;;;999.90;;
82558;SDS011;72227;42.004;21.364;2024-02-21T05:04:06;1999.90;;;999.90;;
82558;SDS011;72227;42.004;21.364;2024-02-21T05:06:32;1999.90;;;999.90;;
82558;SDS011;72227;42.004;21.364;2024-02-21T05:09:02;1999.90;;;999.90;;
82558;SDS011;72227;42.004;21.364;2024-02-21T05:11:28;1999.90;;;999.90;;
82558;SDS011;72227;42.004;21.364;2024-02-21T05:13:54;1999.90;;;999.90;;
82558;SDS011;72227;42.004;21.364;2024-02-21T05:16:20;1999.90;;;999.90;;
82558;SDS011;72227;42.004;21.364;2024-02-21T05:18:46;1999.90;;;999.90;;
82558;SDS011;72227;42.004;21.364;2024-02-21T05:21:13;1999.90;;;999.90;;
82558;SDS011;72227;42.004;21.364;2024-02-21T05:23:39;1999.90;;;999.90;;
82558;SDS011;72227;42.004;21.364;2024-02-21T05:26:05;1999.90;;;999.90;;
82558;SDS011;72227;42.004;21.364;2024-02-21T05:28:31;1999.90;;;999.90;;
82558;SDS011;72227;42.004;21.364;2024-02-21T05:30:57;1999.90;;;999.90;;
82558;SDS011;72227;42.004;21.364;2024-02-21T05:33:24;1999.90;;;999.90;;
82558;SDS011;72227;42.004;21.364;2024-02-21T05:35:50;1999.90;;;999.90;;
82558;SDS011;72227;42.004;21.364;2024-02-21T05:38:17;1999.90;;;999.90;;
82558;SDS011;72227;42.004;21.364;2024-02-21T05:40:44;1999.90;;;999.90;;
82558;SDS011;72227;42.004;21.364;2024-02-21T05:43:10;1999.90;;;999.90;;
82558;SDS011;72227;42.004;21.364;2024-02-21T05:45:36;1999.90;;;999.90;;
82558;SDS011;72227;42.004;21.364;2024-02-21T05:48:06;1999.90;;;999.90;;
82558;SDS011;72227;42.004;21.364;2024-02-21T05:50:32;1999.90;;;999.90;;
82558;SDS011;72227;42.004;21.364;2024-02-21T05:52:58;1999.90;;;999.90;;
82558;SDS011;72227;42.004;21.364;2024-02-21T05:55:24;1999.90;;;999.90;;
82558;SDS011;72227;42.004;21.364;2024-02-21T05:57:53;1999.90;;;999.90;;
82558;SDS011;72227;42.004;21.364;2024-02-21T06:00:20;1999.90;;;999.90;;
82558;SDS011;72227;42.004;21.364;2024-02-21T06:02:46;1999.90;;;999.90;;
82558;SDS011;72227;42.004;21.364;2024-02-21T06:05:12;1999.90;;;999.90;;
82558;SDS011;72227;42.004;21.364;2024-02-21T06:07:38;1999.90;;;999.90;;
82558;SDS011;72227;42.004;21.364;2024-02-21T06:10:04;1999.90;;;999.90;;
82558;SDS011;72227;42.004;21.364;2024-02-21T06:12:31;1999.90;;;999.90;;
82558;SDS011;72227;42.004;21.364;2024-02-21T06:14:57;1999.90;;;999.90;;
82558;SDS011;72227;42.004;21.364;2024-02-21T06:17:23;1999.90;;;999.90;;
82558;SDS011;72227;42.004;21.364;2024-02-21T06:19:49;1999.90;;;999.90;;
82558;SDS011;72227;42.004;21.364;2024-02-21T06:22:15;1999.90;;;999.90;;
82558;SDS011;72227;42.004;21.364;2024-02-21T06:24:41;1999.90;;;999.90;;
82558;SDS011;72227;42.004;21.364;2024-02-21T06:27:08;1999.90;;;999.90;;
82558;SDS011;72227;42.004;21.364;2024-02-21T06:29:34;1999.90;;;999.90;;
82558;SDS011;72227;42.004;21.364;2024-02-21T06:32:09;1999.90;;;999.90;;
82558;SDS011;72227;42.004;21.364;2024-02-21T06:34:35;1999.90;;;999.90;;
82558;SDS011;72227;42.004;21.364;2024-02-21T06:37:01;1999.90;;;999.90;;
82558;SDS011;72227;42.004;21.364;2024-02-21T06:39:27;1999.90;;;999.90;;
82558;SDS011;72227;42.004;21.364;2024-02-21T06:41:54;1999.90;;;999.90;;
82558;SDS011;72227;42.004;21.364;2024-02-21T06:44:21;1999.90;;;999.90;;
82558;SDS011;72227;42.004;21.364;2024-02-21T06:46:47;1999.90;;;999.90;;
82558;SDS011;72227;42.004;21.364;2024-02-21T06:49:13;1999.90;;;999.90;;
82558;SDS011;72227;42.004;21.364;2024-02-21T06:51:41;1999.90;;;999.90;;
82558;SDS011;72227;42.004;21.364;2024-02-21T06:54:08;1999.90;;;999.90;;
82558;SDS011;72227;42.004;21.364;2024-02-21T06:56:37;1999.90;;;999.90;;
82558;SDS011;72227;42.004;21.364;2024-02-21T06:59:03;1999.90;;;999.90;;
82558;SDS011;72227;42.004;21.364;2024-02-21T07:01:29;1999.90;;;999.90;;
82558;SDS011;72227;42.004;21.364;2024-02-21T07:03:56;1999.90;;;999.90;;
82558;SDS011;72227;42.004;21.364;2024-02-21T07:06:22;1999.90;;;999.90;;
82558;SDS011;72227;42.004;21.364;2024-02-21T07:08:48;800.50;;;761.47;;
82558;SDS011;72227;42.004;21.364;2024-02-21T07:11:14;788.08;;;750.95;;
82558;SDS011;72227;42.004;21.364;2024-02-21T07:13:40;732.13;;;699.30;;
82558;SDS011;72227;42.004;21.364;2024-02-21T07:16:06;692.45;;;662.17;;
82558;SDS011;72227;42.004;21.364;2024-02-21T07:18:33;754.13;;;719.42;;
82558;SDS011;72227;42.004;21.364;2024-02-21T07:20:59;585.58;;;561.70;;
82558;SDS011;72227;42.004;21.364;2024-02-21T07:23:25;610.08;;;584.50;;
82558;SDS011;72227;42.004;21.364;2024-02-21T07:25:51;707.42;;;676.63;;
82558;SDS011;72227;42.004;21.364;2024-02-21T07:28:17;797.03;;;758.70;;
82558;SDS011;72227;42.004;21.364;2024-02-21T07:30:43;712.17;;;680.45;;
82558;SDS011;72227;42.004;21.364;2024-02-21T07:33:09;708.92;;;677.83;;
82558;SDS011;72227;42.004;21.364;2024-02-21T07:35:35;669.20;;;640.45;;
82558;SDS011;72227;42.004;21.364;2024-02-21T07:38:06;614.38;;;588.65;;
82558;SDS011;72227;42.004;21.364;2024-02-21T07:40:37;580.50;;;555.10;;
82558;SDS011;72227;42.004;21.364;2024-02-21T07:43:04;634.60;;;608.40;;
82558;SDS011;72227;42.004;21.364;2024-02-21T07:45:30;591.63;;;567.67;;
82558;SDS011;72227;42.004;21.364;2024-02-21T07:47:56;534.63;;;512.80;;
82558;SDS011;72227;42.004;21.364;2024-02-21T07:50:22;548.40;;;526.20;;
82558;SDS011;72227;42.004;21.364;2024-02-21T07:52:48;535.63;;;514.58;;
82558;SDS011;72227;42.004;21.364;2024-02-21T07:58:08;541.75;;;520.38;;
82558;SDS011;72227;42.004;21.364;2024-02-21T08:03:16;535.03;;;513.33;;
82558;SDS011;72227;42.004;21.364;2024-02-21T08:05:43;689.72;;;656.35;;
82558;SDS011;72227;42.004;21.364;2024-02-21T08:08:11;660.90;;;632.13;;
82558;SDS011;72227;42.004;21.364;2024-02-21T08:10:39;619.35;;;593.05;;
82558;SDS011;72227;42.004;21.364;2024-02-21T08:13:05;697.28;;;666.38;;
82558;SDS011;72227;42.004;21.364;2024-02-21T08:15:31;657.50;;;629.15;;
82558;SDS011;72227;42.004;21.364;2024-02-21T08:17:58;532.97;;;512.22;;
82558;SDS011;72227;42.004;21.364;2024-02-21T08:20:26;671.13;;;642.22;;
82558;SDS011;72227;42.004;21.364;2024-02-21T08:22:52;637.05;;;610.55;;
82558;SDS011;72227;42.004;21.364;2024-02-21T08:25:18;770.97;;;734.03;;
82558;SDS011;72227;42.004;21.364;2024-02-21T08:30:32;645.63;;;618.53;;
82558;SDS011;72227;42.004;21.364;2024-02-21T08:32:58;717.80;;;685.45;;
82558;SDS011;72227;42.004;21.364;2024-02-21T08:35:24;720.67;;;687.95;;
82558;SDS011;72227;42.004;21.364;2024-02-21T08:37:50;697.97;;;667.78;;
82558;SDS011;72227;42.004;21.364;2024-02-21T08:40:17;617.22;;;591.80;;
82558;SDS011;72227;42.004;21.364;2024-02-21T08:42:45;694.42;;;664.50;;
82558;SDS011;72227;42.004;21.364;2024-02-21T08:45:13;733.03;;;700.40;;
82558;SDS011;72227;42.004;21.364;2024-02-21T08:47:39;690.88;;;660.83;;
82558;SDS011;72227;42.004;21.364;2024-02-21T08:50:16;662.10;;;632.88;;
82558;SDS011;72227;42.004;21.364;2024-02-21T08:52:42;610.90;;;585.92;;
82558;SDS011;72227;42.004;21.364;2024-02-21T08:55:08;570.65;;;548.20;;
82558;SDS011;72227;42.004;21.364;2024-02-21T08:57:34;522.00;;;500.05;;
82558;SDS011;72227;42.004;21.364;2024-02-21T09:00:02;617.78;;;592.45;;
82558;SDS011;72227;42.004;21.364;2024-02-21T09:05:25;615.00;;;589.85;;
82558;SDS011;72227;42.004;21.364;2024-02-21T09:07:52;575.25;;;552.47;;
82558;SDS011;72227;42.004;21.364;2024-02-21T09:10:18;590.00;;;566.28;;
82558;SDS011;72227;42.004;21.364;2024-02-21T09:12:44;552.30;;;530.67;;
82558;SDS011;72227;42.004;21.364;2024-02-21T09:15:10;584.40;;;561.30;;
82558;SDS011;72227;42.004;21.364;2024-02-21T09:17:36;576.85;;;554.03;;
82558;SDS011;72227;42.004;21.364;2024-02-21T09:20:02;576.13;;;552.97;;
82558;SDS011;72227;42.004;21.364;2024-02-21T09:22:29;571.58;;;548.65;;
82558;SDS011;72227;42.004;21.364;2024-02-21T09:24:56;550.35;;;528.72;;
82558;SDS011;72227;42.004;21.364;2024-02-21T09:27:22;578.88;;;555.13;;
82558;SDS011;72227;42.004;21.364;2024-02-21T09:29:48;602.70;;;578.55;;
82558;SDS011;72227;42.004;21.364;2024-02-21T09:32:18;563.22;;;540.95;;
82558;SDS011;72227;42.004;21.364;2024-02-21T09:34:44;558.05;;;535.20;;
82558;SDS011;72227;42.004;21.364;2024-02-21T09:37:10;634.75;;;608.80;;
82558;SDS011;72227;42.004;21.364;2024-02-21T09:39:36;598.58;;;574.72;;
82558;SDS011;72227;42.004;21.364;2024-02-21T09:42:05;580.47;;;557.25;;
82558;SDS011;72227;42.004;21.364;2024-02-21T09:44:36;560.22;;;537.67;;
82558;SDS011;72227;42.004;21.364;2024-02-21T09:49:40;590.53;;;566.97;;
82558;SDS011;72227;42.004;21.364;2024-02-21T09:52:08;653.33;;;625.97;;
82558;SDS011;72227;42.004;21.364;2024-02-21T09:54:34;655.83;;;628.65;;
82558;SDS011;72227;42.004;21.364;2024-02-21T09:57:01;630.53;;;604.35;;
82558;SDS011;72227;42.004;21.364;2024-02-21T09:59:28;732.38;;;699.70;;
82558;SDS011;72227;42.004;21.364;2024-02-21T10:01:54;727.88;;;695.08;;
82558;SDS011;72227;42.004;21.364;2024-02-21T10:04:20;674.72;;;645.80;;
82558;SDS011;72227;42.004;21.364;2024-02-21T10:06:47;678.08;;;649.10;;
82558;SDS011;72227;42.004;21.364;2024-02-21T10:09:47;720.58;;;688.28;;
82558;SDS011;72227;42.004;21.364;2024-02-21T10:12:09;591.75;;;567.83;;
82558;SDS011;72227;42.004;21.364;2024-02-21T10:17:22;608.53;;;583.90;;
82558;SDS011;72227;42.004;21.364;2024-02-21T10:19:48;583.78;;;560.83;;
82558;SDS011;72227;42.004;21.364;2024-02-21T10:22:15;608.00;;;583.67;;
82558;SDS011;72227;42.004;21.364;2024-02-21T10:24:41;701.67;;;655.85;;
82558;SDS011;72227;42.004;21.364;2024-02-21T10:27:08;626.72;;;600.97;;
82558;SDS011;72227;42.004;21.364;2024-02-21T10:29:35;616.47;;;591.22;;
82558;SDS011;72227;42.004;21.364;2024-02-21T10:32:08;618.17;;;592.83;;
82558;SDS011;72227;42.004;21.364;2024-02-21T10:34:35;617.65;;;592.17;;
82558;SDS011;72227;42.004;21.364;2024-02-21T10:37:02;744.63;;;708.80;;
82558;SDS011;72227;42.004;21.364;2024-02-21T10:39:30;648.15;;;620.72;;
82558;SDS011;72227;42.004;21.364;2024-02-21T10:41:57;696.30;;;665.67;;
82558;SDS011;72227;42.004;21.364;2024-02-21T10:44:25;443.77;;;424.70;;
82558;SDS011;72227;42.004;21.364;2024-02-21T10:46:55;608.42;;;581.53;;
82558;SDS011;72227;42.004;21.364;2024-02-21T10:49:27;583.75;;;560.10;;
82558;SDS011;72227;42.004;21.364;2024-02-21T10:52:06;595.33;;;571.50;;
82558;SDS011;72227;42.004;21.364;2024-02-21T10:57:01;633.88;;;607.63;;
82558;SDS011;72227;42.004;21.364;2024-02-21T10:59:28;645.63;;;619.33;;
82558;SDS011;72227;42.004;21.364;2024-02-21T11:01:57;638.17;;;611.45;;
82558;SDS011;72227;42.004;21.364;2024-02-21T11:04:23;643.17;;;616.78;;
82558;SDS011;72227;42.004;21.364;2024-02-21T11:06:49;632.45;;;606.63;;
82558;SDS011;72227;42.004;21.364;2024-02-21T11:09:15;610.10;;;585.22;;
82558;SDS011;72227;42.004;21.364;2024-02-21T11:11:43;624.30;;;598.60;;
82558;SDS011;72227;42.004;21.364;2024-02-21T11:14:10;568.85;;;545.28;;
82558;SDS011;72227;42.004;21.364;2024-02-21T11:16:40;631.72;;;606.35;;
82558;SDS011;72227;42.004;21.364;2024-02-21T11:19:18;620.03;;;594.92;;
82558;SDS011;72227;42.004;21.364;2024-02-21T11:21:54;619.63;;;593.70;;
82558;SDS011;72227;42.004;21.364;2024-02-21T11:26:54;643.42;;;616.83;;
82558;SDS011;72227;42.004;21.364;2024-02-21T11:29:30;673.63;;;645.10;;
82558;SDS011;72227;42.004;21.364;2024-02-21T11:31:56;663.97;;;635.92;;
82558;SDS011;72227;42.004;21.364;2024-02-21T11:34:23;622.13;;;596.78;;
82558;SDS011;72227;42.004;21.364;2024-02-21T11:36:49;548.88;;;526.67;;
82558;SDS011;72227;42.004;21.364;2024-02-21T11:42:00;677.20;;;647.67;;
82558;SDS011;72227;42.004;21.364;2024-02-21T11:44:26;573.55;;;550.38;;
82558;SDS011;72227;42.004;21.364;2024-02-21T11:46:52;425.05;;;408.85;;
82558;SDS011;72227;42.004;21.364;2024-02-21T11:52:22;649.97;;;622.47;;
82558;SDS011;72227;42.004;21.364;2024-02-21T11:54:50;488.27;;;469.05;;
82558;SDS011;72227;42.004;21.364;2024-02-21T11:57:17;550.35;;;526.88;;
82558;SDS011;72227;42.004;21.364;2024-02-21T11:59:46;397.25;;;382.30;;
82558;SDS011;72227;42.004;21.364;2024-02-21T12:02:14;401.05;;;386.05;;
82558;SDS011;72227;42.004;21.364;2024-02-21T12:04:41;598.58;;;557.80;;
82558;SDS011;72227;42.004;21.364;2024-02-21T12:07:07;408.00;;;392.65;;
82558;SDS011;72227;42.004;21.364;2024-02-21T12:09:34;501.83;;;481.85;;
82558;SDS011;72227;42.004;21.364;2024-02-21T12:12:01;513.38;;;492.65;;
82558;SDS011;72227;42.004;21.364;2024-02-21T12:14:28;389.17;;;375.13;;
82558;SDS011;72227;42.004;21.364;2024-02-21T12:16:58;442.65;;;425.75;;
82558;SDS011;72227;42.004;21.364;2024-02-21T12:19:24;433.77;;;417.00;;
82558;SDS011;72227;42.004;21.364;2024-02-21T12:21:51;446.73;;;428.65;;
82558;SDS011;72227;42.004;21.364;2024-02-21T12:24:24;477.48;;;459.00;;
82558;SDS011;72227;42.004;21.364;2024-02-21T12:26:51;486.70;;;467.70;;
82558;SDS011;72227;42.004;21.364;2024-02-21T12:29:17;536.42;;;515.10;;
82558;SDS011;72227;42.004;21.364;2024-02-21T12:31:44;531.17;;;509.92;;
82558;SDS011;72227;42.004;21.364;2024-02-21T12:34:16;514.65;;;494.67;;
82558;SDS011;72227;42.004;21.364;2024-02-21T12:36:53;515.03;;;494.88;;
82558;SDS011;72227;42.004;21.364;2024-02-21T12:39:22;497.05;;;477.85;;
82558;SDS011;72227;42.004;21.364;2024-02-21T12:41:48;478.63;;;460.08;;
82558;SDS011;72227;42.004;21.364;2024-02-21T12:44:14;456.00;;;437.98;;
82558;SDS011;72227;42.004;21.364;2024-02-21T12:46:41;396.90;;;381.92;;
82558;SDS011;72227;42.004;21.364;2024-02-21T12:49:07;413.02;;;397.50;;
82558;SDS011;72227;42.004;21.364;2024-02-21T12:51:34;443.35;;;426.27;;
82558;SDS011;72227;42.004;21.364;2024-02-21T12:54:00;580.53;;;556.63;;
82558;SDS011;72227;42.004;21.364;2024-02-21T12:56:28;595.85;;;571.47;;
82558;SDS011;72227;42.004;21.364;2024-02-21T12:58:56;659.40;;;631.50;;
82558;SDS011;72227;42.004;21.364;2024-02-21T13:01:22;643.20;;;616.17;;
82558;SDS011;72227;42.004;21.364;2024-02-21T13:03:48;669.72;;;641.40;;
82558;SDS011;72227;42.004;21.364;2024-02-21T13:06:14;555.95;;;531.90;;
82558;SDS011;72227;42.004;21.364;2024-02-21T13:08:41;733.55;;;701.03;;
82558;SDS011;72227;42.004;21.364;2024-02-21T13:11:10;668.42;;;639.00;;
82558;SDS011;72227;42.004;21.364;2024-02-21T13:13:36;487.30;;;467.98;;
82558;SDS011;72227;42.004;21.364;2024-02-21T13:16:03;546.95;;;524.63;;
82558;SDS011;72227;42.004;21.364;2024-02-21T13:18:29;465.33;;;447.40;;
82558;SDS011;72227;42.004;21.364;2024-02-21T13:20:55;374.95;;;361.17;;
82558;SDS011;72227;42.004;21.364;2024-02-21T13:23:21;612.83;;;587.05;;
82558;SDS011;72227;42.004;21.364;2024-02-21T13:25:47;480.73;;;461.65;;
82558;SDS011;72227;42.004;21.364;2024-02-21T13:28:14;590.85;;;566.97;;
82558;SDS011;72227;42.004;21.364;2024-02-21T13:30:41;617.45;;;591.63;;
82558;SDS011;72227;42.004;21.364;2024-02-21T13:33:07;662.25;;;634.25;;
82558;SDS011;72227;42.004;21.364;2024-02-21T13:35:35;631.63;;;605.72;;
82558;SDS011;72227;42.004;21.364;2024-02-21T13:38:01;662.35;;;634.13;;
82558;SDS011;72227;42.004;21.364;2024-02-21T13:40:28;666.33;;;638.45;;
82558;SDS011;72227;42.004;21.364;2024-02-21T13:42:54;663.33;;;635.83;;
82558;SDS011;72227;42.004;21.364;2024-02-21T13:45:20;660.72;;;632.92;;
82558;SDS011;72227;42.004;21.364;2024-02-21T13:47:46;652.10;;;624.80;;
82558;SDS011;72227;42.004;21.364;2024-02-21T13:50:13;661.28;;;633.42;;
82558;SDS011;72227;42.004;21.364;2024-02-21T13:52:40;665.10;;;637.03;;
82558;SDS011;72227;42.004;21.364;2024-02-21T13:55:06;679.08;;;650.25;;
82558;SDS011;72227;42.004;21.364;2024-02-21T13:57:35;665.90;;;637.78;;
82558;SDS011;72227;42.004;21.364;2024-02-21T14:00:02;669.22;;;640.47;;
82558;SDS011;72227;42.004;21.364;2024-02-21T14:02:28;676.22;;;647.75;;
82558;SDS011;72227;42.004;21.364;2024-02-21T14:04:54;674.58;;;646.42;;
82558;SDS011;72227;42.004;21.364;2024-02-21T14:07:21;670.10;;;642.22;;
82558;SDS011;72227;42.004;21.364;2024-02-21T14:09:47;656.50;;;629.03;;